Time;durP1;ratioP1;P1;durP2;ratioP2;P2;SDS_P1;SDS_P2;PMS_P1;PMS_P2;Temp;Humidity;BMP_temperature;BMP_pressure;BME280_temperature;BME280_humidity;BME280_pressure;Samples;Min_cycle;Max_cycle;Signal;HPM_P1;HPM_P2
2022/01/25 00:08:39;;;;;;;5.28;4.43;;;;;;;;;;5053342;28;20048;-46
2022/01/25 00:27:03;;;;;;;4.55;4.10;;;;;;;;;;5053486;28;20079;-49
2022/01/25 00:32:10;;;;;;;4.18;3.78;;;;;;;;;;5053016;28;20036;-48
2022/01/25 00:34:36;;;;;;;4.38;3.67;;;;;;;;;;5052917;28;20356;-47
2022/01/25 00:37:03;;;;;;;4.68;4.18;;;;;;;;;;5052376;28;20029;-48
2022/01/25 00:39:29;;;;;;;4.32;3.92;;;;;;;;;;5052765;28;20029;-47
2022/01/25 00:41:55;;;;;;;4.35;3.75;;;;;;;;;;5052811;28;20039;-46
2022/01/25 00:44:21;;;;;;;5.28;4.28;;;;;;;;;;5052640;28;20061;-46
2022/01/25 00:46:47;;;;;;;4.32;3.92;;;15.30;90.70;;;;;;5052841;28;20036;-46
2022/01/25 00:49:21;;;;;;;4.60;4.20;;;;;;;;;;5052563;28;20135;-46
2022/01/25 00:52:04;;;;;;;4.13;3.65;;;;;;;;;;5052559;28;20025;-47
2022/01/25 00:54:32;;;;;;;4.65;4.15;;;;;;;;;;5052491;28;20029;-46
2022/01/25 00:56:58;;;;;;;4.60;4.20;;;;;;;;;;5052720;28;20068;-46
2022/01/25 00:59:31;;;;;;;4.72;4.10;;;15.20;86.40;;;;;;5052628;28;20119;-46
2022/01/25 01:02:00;;;;;;;5.97;4.13;;;15.20;91.20;;;;;;5052337;28;20422;-47
2022/01/25 01:04:27;;;;;;;4.18;3.78;;;;;;;;;;5052337;28;20029;-46
2022/01/25 01:06:53;;;;;;;4.30;3.70;;;;;;;;;;5052556;28;20025;-46
2022/01/25 01:09:21;;;;;;;5.65;4.18;;;15.10;91.30;;;;;;5052283;28;20060;-47
2022/01/25 01:11:55;;;;;;;4.07;3.70;;;;;;;;;;5052503;28;20024;-46
2022/01/25 01:43:36;;;;;;;4.88;4.43;;;;;;;;;;5052002;28;20035;-46
2022/01/25 01:48:42;;;;;;;4.63;4.20;;;;;;;;;;5051057;28;20052;-46
2022/01/25 01:51:17;;;;;;;4.88;4.47;;;;;;;;;;5052155;28;20032;-47
2022/01/25 01:53:43;;;;;;;4.78;4.20;;;;;;;;;;5051793;28;20025;-48
2022/01/25 01:56:09;;;;;;;5.20;4.20;;;;;;;;;;5051681;28;20027;-48
2022/01/25 01:58:36;;;;;;;5.13;4.47;;;;;;;;;;5051637;28;20037;-48
2022/01/25 02:01:02;;;;;;;4.93;4.43;;;;;;;;;;5051693;28;20036;-48
2022/01/25 02:03:28;;;;;;;5.85;4.88;;;;;;;;;;5051425;28;20059;-48
2022/01/25 02:05:54;;;;;;;5.20;4.40;;;;;;;;;;5051507;28;20025;-48
2022/01/25 02:08:20;;;;;;;4.95;4.45;;;;;;;;;;5051523;28;20040;-48
2022/01/25 02:10:46;;;;;;;4.90;4.40;;;;;;;;;;5051628;28;20483;-46
2022/01/25 02:13:12;;;;;;;6.05;4.70;;;;;;;;;;5051610;28;20078;-46
2022/01/25 02:15:43;;;;;;;4.90;4.40;;;;;;;;;;5051780;28;20078;-46
2022/01/25 02:23:37;;;;;;;5.07;4.57;;;;;;;;;;5051848;28;20036;-46
2022/01/25 02:26:05;;;;;;;4.78;4.28;;;14.90;91.60;;;;;;5051400;28;20025;-46
2022/01/25 02:28:34;;;;;;;4.97;4.57;;;14.80;91.40;;;;;;5050020;28;20032;-47
2022/01/25 02:31:00;;;;;;;4.80;4.40;;;;;;;;;;5051432;28;20021;-46
2022/01/25 02:33:27;;;;;;;5.30;4.60;;;;;;;;;;5051346;28;20040;-46
2022/01/25 02:35:54;;;;;;;5.60;4.85;;;14.80;91.70;;;;;;5051345;28;20033;-47
2022/01/25 02:38:26;;;;;;;6.95;4.97;;;14.80;91.90;;;;;;5051348;28;20029;-46
2022/01/25 02:40:52;;;;;;;5.32;4.85;;;;;;;;;;5051305;28;20025;-46
2022/01/25 02:43:20;;;;;;;5.88;5.28;;;;;;;;;;5051292;28;20387;-46
2022/01/25 02:46:07;;;;;;;5.10;4.53;;;14.80;87.20;;;;;;5051423;28;20079;-46
2022/01/25 02:48:56;;;;;;;5.63;4.60;;;14.80;91.80;;;;;;5051179;28;20040;-46
2022/01/25 02:51:26;;;;;;;4.70;4.23;;;14.80;91.60;;;;;;5051281;28;20033;-46
2022/01/25 02:53:52;;;;;;;4.68;4.13;;;;;;;;;;5051227;28;20462;-47
2022/01/25 02:56:20;;;;;;;5.45;4.95;;;;;;;;;;5051177;28;20525;-47
2022/01/25 02:58:46;;;;;;;5.35;4.85;;;;;;;;;;5051917;28;20067;-46
2022/01/25 03:01:12;;;;;;;5.47;4.82;;;;;;;;;;5054667;28;20103;-47
2022/01/25 03:03:38;;;;;;;5.95;5.38;;;;;;;;;;5054482;28;20053;-46
2022/01/25 03:06:04;;;;;;;6.30;5.00;;;;;;;;;;5054678;28;20094;-46
2022/01/25 03:08:31;;;;;;;5.13;4.63;;;;;;;;;;5054508;28;20045;-46
2022/01/25 03:10:57;;;;;;;5.85;5.25;;;;;;;;;;5054643;28;20417;-46
2022/01/25 03:13:29;;;;;;;6.45;4.68;;;;;;;;;;5054395;28;20033;-46
2022/01/25 03:16:00;;;;;;;5.78;4.70;;;;;;;;;;5054445;28;20021;-46
2022/01/25 03:21:03;;;;;;;5.70;4.90;;;;;;;;;;5054394;28;20414;-47
2022/01/25 03:23:30;;;;;;;5.25;4.75;;;;;;;;;;5054679;28;20033;-47
2022/01/25 03:25:56;;;;;;;6.38;5.00;;;;;;;;;;5054303;28;20040;-48
2022/01/25 03:28:23;;;;;;;6.50;5.80;;;14.70;90.90;;;;;;5054200;28;20037;-48
2022/01/25 03:30:49;;;;;;;5.80;5.20;;;;;;;;;;5054083;28;20025;-48
2022/01/25 03:33:15;;;;;;;5.55;4.65;;;14.60;90.30;;;;;;5054045;28;20041;-49
2022/01/25 03:35:42;;;;;;;4.90;4.50;;;;;;;;;;5054355;28;20399;-48
2022/01/25 03:38:08;;;;;;;5.38;4.88;;;;;;;;;;5053875;28;20029;-48
2022/01/25 03:40:34;;;;;;;6.13;5.18;;;;;;;;;;5053916;28;20551;-48
2022/01/25 03:43:03;;;;;;;5.57;4.88;;;;;;;;;;5053936;28;20025;-49
2022/01/25 03:45:32;;;;;;;5.25;4.75;;;;;;;;;;5054169;28;20025;-48
2022/01/25 03:50:36;;;;;;;5.10;4.60;;;;;;;;;;5053803;28;20124;-47
2022/01/25 03:53:02;;;;;;;6.25;5.13;;;;;;;;;;5053669;28;20261;-46
2022/01/25 03:55:28;;;;;;;6.30;5.03;;;;;;;;;;5053768;28;20598;-49
2022/01/25 03:57:54;;;;;;;5.38;4.88;;;;;;;;;;5053718;28;20036;-49
2022/01/25 04:00:20;;;;;;;7.60;6.28;;;;;;;;;;5053568;28;20025;-48
2022/01/25 04:03:33;;;;;;;5.68;5.10;;;;;;;;;;5053308;28;20099;-48
2022/01/25 04:05:47;;;;;;;6.55;5.47;;;;;;;;;;5050312;28;20506;-48
2022/01/25 04:08:13;;;;;;;5.85;5.25;;;;;;;;;;5053717;28;20080;-47
2022/01/25 04:10:40;;;;;;;5.70;4.93;;;;;;;;;;5052536;28;20025;-49
2022/01/25 04:13:07;;;;;;;5.78;5.22;;;;;;;;;;5053146;28;20053;-49
2022/01/25 04:15:34;;;;;;;5.82;5.22;;;;;;;;;;5053516;28;20021;-50
2022/01/25 04:18:21;;;;;;;7.55;5.80;;;;;;;;;;5053244;28;20530;-49
2022/01/25 04:20:58;;;;;;;5.75;5.18;;;;;;;;;;5053218;28;20463;-47
2022/01/25 04:26:08;;;;;;;6.70;5.32;;;;;;;;;;5053086;28;20051;-47
2022/01/25 04:28:34;;;;;;;5.70;5.10;;;;;;;;;;5052991;28;20511;-48
2022/01/25 04:31:00;;;;;;;7.57;5.85;;;;;;;;;;5053013;28;20037;-48
2022/01/25 04:33:38;;;;;;;5.82;5.10;;;;;;;;;;5052839;28;20087;-48
2022/01/25 04:50:00;;;;;;;7.50;5.82;;;;;;;;;;5052891;28;20040;-48
2022/01/25 04:52:31;;;;;;;6.43;5.55;;;;;;;;;;5052435;28;20024;-48
2022/01/25 04:55:21;;;;;;;6.57;5.65;;;;;;;;;;5052617;28;20036;-47
2022/01/25 04:57:53;;;;;;;6.80;5.47;;;;;;;;;;5052417;28;20499;-48
2022/01/25 05:00:22;;;;;;;5.97;5.30;;;;;;;;;;5052392;28;20033;-48
2022/01/25 05:02:53;;;;;;;6.25;5.53;;;;;;;;;;5052161;28;20091;-48
2022/01/25 05:05:41;;;;;;;6.30;5.70;;;14.40;91.30;;;;;;5052316;28;20029;-48
2022/01/25 05:11:12;;;;;;;6.45;5.75;;;;;;;;;;5047440;28;20553;-47
2022/01/25 05:14:12;;;;;;;6.90;5.63;;;;;;;;;;5052261;28;20231;-47
2022/01/25 05:16:48;;;;;;;6.20;5.60;;;;;;;;;;5052535;28;20028;-48
2022/01/25 05:22:18;;;;;;;6.53;5.93;;;14.40;88.40;;;;;;5052361;28;20082;-49
2022/01/25 05:24:45;;;;;;;6.60;5.93;;;;;;;;;;5052067;28;20098;-48
2022/01/25 05:27:12;;;;;;;6.20;5.60;;;;;;;;;;5051935;28;20025;-47
2022/01/25 05:29:39;;;;;;;5.80;5.25;;;;;;;;;;5052270;28;20403;-49
2022/01/25 05:32:05;;;;;;;6.63;5.93;;;;;;;;;;5051947;28;20029;-46
2022/01/25 05:34:31;;;;;;;6.68;6.00;;;;;;;;;;5051862;28;20068;-49
2022/01/25 05:36:57;;;;;;;7.78;6.32;;;;;;;;;;5051903;28;20037;-49
2022/01/25 05:39:28;;;;;;;6.28;5.68;;;;;;;;;;5051969;28;20036;-49
2022/01/25 05:41:58;;;;;;;6.60;5.90;;;;;;;;;;5052184;28;20047;-48
2022/01/25 05:47:30;;;;;;;6.97;6.10;;;;;;;;;;5029452;28;20052;-48
2022/01/25 05:49:57;;;;;;;8.52;6.82;;;;;;;;;;5029601;28;20052;-49
2022/01/25 05:52:23;;;;;;;6.93;6.20;;;;;;;;;;5040350;28;20044;-47
2022/01/25 05:54:49;;;;;;;7.07;6.15;;;;;;;;;;5051648;28;20033;-49
2022/01/25 05:57:15;;;;;;;6.90;6.20;;;;;;;;;;5051555;28;20024;-48
2022/01/25 05:59:41;;;;;;;7.85;6.03;;;;;;;;;;5051906;28;20029;-50
2022/01/25 06:02:08;;;;;;;8.00;6.70;;;;;;;;;;5051398;28;20467;-48
2022/01/25 06:04:33;;;;;;;7.32;6.60;;;;;;;;;;5051651;28;20037;-48
2022/01/25 06:06:59;;;;;;;6.80;6.10;;;;;;;;;;5051659;28;20025;-47
2022/01/25 06:09:25;;;;;;;6.68;6.00;;;;;;;;;;5051700;28;20086;-47
2022/01/25 06:11:52;;;;;;;6.68;5.70;;;;;;;;;;5051592;28;20380;-48
2022/01/25 06:14:18;;;;;;;6.00;5.40;;;;;;;;;;5051622;28;20029;-48
2022/01/25 06:16:44;;;;;;;6.15;5.55;;;;;;;;;;5051414;28;20442;-47
2022/01/25 06:19:10;;;;;;;7.10;5.47;;;;;;;;;;5051511;28;20056;-48
2022/01/25 06:21:36;;;;;;;5.93;5.32;;;;;;;;;;5051491;28;20032;-48
2022/01/25 06:24:02;;;;;;;6.18;5.57;;;;;;;;;;5051769;28;20036;-49
2022/01/25 06:26:28;;;;;;;6.05;5.13;;;;;;;;;;5051771;28;20025;-48
2022/01/25 06:28:54;;;;;;;7.05;4.50;;;;;;;;;;5051663;28;20510;-47
2022/01/25 06:31:20;;;;;;;6.30;5.70;;;;;;;;;;5051716;28;20033;-46
2022/01/25 06:33:47;;;;;;;7.97;5.55;;;;;;;;;;5052582;28;20036;-48
2022/01/25 06:36:13;;;;;;;7.75;6.43;;;;;;;;;;5055739;28;20110;-47
2022/01/25 06:38:39;;;;;;;10.13;8.07;;;;;;;;;;5055481;28;20061;-48
2022/01/25 06:41:06;;;;;;;7.65;6.80;;;;;;;;;;5055438;28;20449;-49
2022/01/25 06:43:31;;;;;;;7.30;6.60;;;;;;;;;;5055408;28;20153;-47
2022/01/25 06:46:03;;;;;;;8.90;6.63;;;;;;;;;;5055331;28;20048;-48
2022/01/25 06:48:29;;;;;;;6.95;6.25;;;;;;;;;;5055336;28;20037;-46
2022/01/25 06:50:55;;;;;;;7.97;6.35;;;;;;;;;;5055153;28;20033;-46
2022/01/25 06:53:21;;;;;;;9.50;7.80;;;;;;;;;;5055042;28;20033;-47
2022/01/25 06:55:47;;;;;;;9.98;8.00;;;;;;;;;;5055130;28;20070;-46
2022/01/25 06:58:13;;;;;;;9.75;7.82;;;;;;;;;;5055115;28;20440;-47
2022/01/25 07:00:39;;;;;;;10.25;7.63;;;;;;;;;;5055030;28;20048;-47
2022/01/25 07:03:05;;;;;;;8.48;7.55;;;;;;;;;;5054639;28;20053;-46
2022/01/25 07:05:31;;;;;;;10.13;8.65;;;;;;;;;;5055025;28;20036;-49
2022/01/25 07:07:58;;;;;;;9.60;8.00;;;;;;;;;;5055109;28;20029;-50
2022/01/25 07:10:24;;;;;;;10.52;8.20;;;;;;;;;;5054871;28;20163;-49
2022/01/25 07:12:50;;;;;;;10.77;8.23;;;;;;;;;;5054724;28;20064;-50
2022/01/25 07:15:16;;;;;;;11.13;8.18;;;;;;;;;;5054630;28;20033;-47
2022/01/25 07:17:42;;;;;;;8.73;7.45;;;;;;;;;;5054827;28;20567;-47
2022/01/25 07:20:09;;;;;;;11.88;7.38;;;;;;;;;;5054562;28;20025;-47
2022/01/25 07:22:35;;;;;;;12.55;9.10;;;;;;;;;;5054662;28;20040;-48
2022/01/25 07:25:02;;;;;;;15.10;9.30;;;;;;;;;;5054418;28;20035;-45
2022/01/25 07:27:28;;;;;;;12.13;9.77;;;;;;;;;;5054255;28;20162;-46
2022/01/25 07:29:54;;;;;;;10.80;8.70;;;;;;;;;;5054446;28;20057;-45
2022/01/25 07:32:20;;;;;;;12.65;9.52;;;;;;;;;;5054435;28;20021;-46
2022/01/25 07:34:46;;;;;;;12.35;9.05;;;;;;;;;;5054407;28;20083;-45
2022/01/25 07:37:12;;;;;;;12.85;9.75;;;;;;;;;;5054308;28;20476;-45
2022/01/25 07:39:38;;;;;;;11.50;8.88;;;;;;;;;;5054324;28;20065;-45
2022/01/25 07:42:04;;;;;;;9.88;8.35;;;;;;;;;;5054000;28;20021;-45
2022/01/25 07:44:33;;;;;;;18.55;10.45;;;;;;;;;;5053790;28;20399;-45
2022/01/25 07:47:01;;;;;;;12.90;9.43;;;;;;;;;;5053171;28;20029;-45
2022/01/25 07:49:30;;;;;;;13.82;10.18;;;;;;;;;;5054230;28;20461;-46
2022/01/25 07:51:56;;;;;;;14.27;10.85;;;;;;;;;;5054026;28;20025;-45
2022/01/25 07:54:22;;;;;;;11.85;9.68;;;;;;;;;;5053962;28;20029;-45
2022/01/25 07:56:48;;;;;;;13.98;9.80;;;;;;;;;;5054011;28;20370;-46
2022/01/25 07:59:15;;;;;;;15.25;11.48;;;;;;;;;;5053871;28;20039;-45
2022/01/25 08:01:41;;;;;;;13.70;10.98;;;;;;;;;;5053813;28;20029;-45
2022/01/25 08:04:08;;;;;;;11.98;9.18;;;;;;;;;;5053581;28;20060;-45
2022/01/25 08:06:34;;;;;;;12.00;9.75;;;;;;;;;;5053800;28;20472;-45
2022/01/25 08:09:01;;;;;;;15.02;10.68;;;;;;;;;;5053702;28;20479;-45
2022/01/25 08:11:27;;;;;;;12.95;10.70;;;;;;;;;;5053580;28;20029;-45
2022/01/25 08:14:00;;;;;;;15.50;9.95;;;;;;;;;;5053686;28;20163;-45
2022/01/25 08:16:26;;;;;;;11.80;10.25;;;;;;;;;;5053886;28;20154;-45
2022/01/25 08:18:52;;;;;;;11.50;9.60;;;;;;;;;;5053626;28;20153;-46
2022/01/25 08:21:18;;;;;;;13.18;10.25;;;;;;;;;;5053498;28;20522;-46
2022/01/25 08:23:44;;;;;;;11.25;10.00;;;;;;;;;;5053428;28;20102;-46
2022/01/25 08:26:10;;;;;;;10.85;8.73;;;;;;;;;;5053386;28;20067;-46
2022/01/25 08:28:36;;;;;;;14.35;9.57;;;;;;;;;;5053260;28;20029;-45
2022/01/25 08:31:02;;;;;;;11.60;9.07;;;;;;;;;;5053312;28;20625;-45
2022/01/25 08:33:29;;;;;;;13.38;10.38;;;;;;;;;;5053527;28;20361;-45
2022/01/25 08:35:55;;;;;;;12.07;10.07;;;;;;;;;;5053297;28;20070;-46
2022/01/25 08:38:21;;;;;;;13.63;9.65;;;;;;;;;;5053239;28;20036;-47
2022/01/25 08:40:47;;;;;;;18.63;11.32;;;;;;;;;;5053176;28;20057;-47
2022/01/25 08:43:13;;;;;;;15.10;11.90;;;;;;;;;;5053366;28;20057;-48
2022/01/25 08:45:39;;;;;;;13.82;11.52;;;;;;;;;;5053092;28;20036;-48
2022/01/25 08:48:05;;;;;;;14.07;10.93;;;;;;;;;;5053029;28;20040;-47
2022/01/25 08:50:31;;;;;;;14.27;10.52;;;;;;;;;;5052973;28;20100;-47
2022/01/25 08:52:57;;;;;;;12.65;10.68;;;;;;;;;;5053091;28;20029;-47
2022/01/25 08:55:23;;;;;;;13.30;10.40;;;;;;;;;;5052952;28;20040;-48
2022/01/25 08:57:49;;;;;;;17.40;12.93;;;;;;;;;;5052482;28;20040;-47
2022/01/25 09:00:15;;;;;;;17.77;12.52;;;;;;;;;;5052774;28;20025;-48
2022/01/25 09:02:41;;;;;;;13.18;10.85;;;;;;;;;;5052493;28;20052;-48
2022/01/25 09:05:08;;;;;;;13.93;11.68;;;;;;;;;;5052623;28;20459;-47
2022/01/25 09:07:34;;;;;;;13.02;10.68;;;;;;;;;;5052824;28;20040;-48
2022/01/25 09:10:00;;;;;;;15.63;11.85;;;;;;;;;;5052926;28;20021;-47
2022/01/25 09:12:27;;;;;;;16.42;13.15;;;;;;;;;;5052549;28;20033;-47
2022/01/25 09:14:53;;;;;;;16.95;12.23;;;;;;;;;;5052668;28;20032;-48
2022/01/25 09:17:19;;;;;;;14.75;12.32;;;;;;;;;;5052359;28;20028;-47
2022/01/25 09:19:45;;;;;;;14.80;11.88;;;;;;;;;;5052427;28;20488;-47
2022/01/25 09:22:11;;;;;;;16.85;12.93;;;;;;;;;;5052423;28;20057;-47
2022/01/25 09:24:38;;;;;;;16.65;12.55;;;;;;;;;;5052343;28;20562;-47
2022/01/25 09:27:05;;;;;;;14.18;11.68;;;14.50;91.90;;;;;;5052445;28;20387;-48
2022/01/25 09:29:31;;;;;;;15.07;11.90;;;;;;;;;;5052218;28;20048;-48
2022/01/25 09:31:57;;;;;;;15.68;11.68;;;;;;;;;;5052690;28;20057;-47
2022/01/25 09:34:25;;;;;;;15.88;12.43;;;;;;;;;;5052587;28;20067;-48
2022/01/25 09:36:52;;;;;;;14.52;11.63;;;14.60;90.70;;;;;;5052200;28;20078;-47
2022/01/25 09:39:18;;;;;;;12.23;10.63;;;;;;;;;;5052145;28;20460;-48
2022/01/25 09:41:44;;;;;;;18.85;10.52;;;;;;;;;;5052042;28;20056;-48
2022/01/25 09:44:10;;;;;;;16.40;10.95;;;;;;;;;;5052157;28;20372;-49
2022/01/25 09:46:37;;;;;;;15.25;11.40;;;;;;;;;;5052183;28;20036;-47
2022/01/25 09:49:03;;;;;;;16.45;12.23;;;;;;;;;;5052072;28;20066;-48
2022/01/25 09:51:30;;;;;;;14.75;12.02;;;14.40;91.90;;;;;;5052196;28;20028;-48
2022/01/25 09:53:56;;;;;;;13.73;11.52;;;;;;;;;;5052168;28;20040;-47
2022/01/25 09:56:22;;;;;;;15.57;12.20;;;;;;;;;;5052090;28;20025;-47
2022/01/25 09:58:49;;;;;;;16.27;12.25;;;;;;;;;;5051999;28;20190;-47
2022/01/25 10:01:16;;;;;;;15.20;12.07;;;;;;;;;;5051998;28;20021;-48
2022/01/25 10:03:44;;;;;;;16.95;12.80;;;;;;;;;;5051786;28;20049;-47
2022/01/25 10:06:17;;;;;;;14.88;12.48;;;14.20;87.40;;;;;;5052067;28;20152;-47
2022/01/25 10:08:45;;;;;;;17.88;13.40;;;14.20;91.80;;;;;;5052767;28;20407;-48
2022/01/25 10:11:15;;;;;;;14.90;12.00;;;14.20;91.70;;;;;;5056057;28;20013;-48
2022/01/25 10:13:40;;;;;;;;;;;14.20;91.80;;;;;;5056404;28;20036;-47
2022/01/25 10:16:06;;;;;;;15.75;11.35;;;;;;;;;;5055942;28;20290;-47
2022/01/25 10:18:46;;;;;;;16.90;13.02;;;14.20;87.90;;;;;;5055823;28;20091;-47
2022/01/25 10:21:16;;;;;;;15.98;12.80;;;14.20;92.10;;;;;;5055901;28;20037;-49
2022/01/25 10:23:59;;;;;;;14.98;12.38;;;14.20;92.40;;;;;;5056026;28;20099;-48
2022/01/25 10:26:25;;;;;;;16.27;12.38;;;;;;;;;;5055748;28;20063;-48
2022/01/25 10:28:52;;;;;;;14.27;11.18;;;;;;;;;;5055648;28;20111;-47
2022/01/25 10:31:18;;;;;;;13.00;10.68;;;;;;;;;;5055637;28;20096;-46
2022/01/25 10:33:52;;;;;;;14.18;11.18;;;;;;;;;;5055653;28;20028;-46
2022/01/25 10:36:22;;;;;;;13.15;10.10;;;14.50;91.90;;;;;;5055841;28;20036;-48
2022/01/25 10:38:49;;;;;;;14.98;11.45;;;14.50;92.00;;;;;;5055505;28;20109;-47
2022/01/25 10:41:20;;;;;;;13.52;11.15;;;14.50;92.00;;;;;;5055486;28;20104;-47
2022/01/25 10:43:47;;;;;;;16.27;10.38;;;14.60;91.90;;;;;;5055440;28;20037;-47
2022/01/25 10:46:32;;;;;;;11.38;9.50;;;14.70;86.80;;;;;;5055417;28;20435;-46
2022/01/25 10:49:10;;;;;;;11.32;9.60;;;14.60;88.10;;;;;;5053840;28;20057;-46
2022/01/25 10:51:39;;;;;;;15.25;10.80;;;14.70;91.80;;;;;;5055341;28;20485;-46
2022/01/25 10:54:16;;;;;;;12.50;10.32;;;14.70;87.40;;;;;;5055313;28;20024;-46
2022/01/25 10:56:42;;;;;;;14.65;10.82;;;;;;;;;;5055212;28;20086;-46
2022/01/25 10:59:12;;;;;;;11.57;9.68;;;14.80;91.80;;;;;;5055199;28;20025;-45
2022/01/25 11:01:50;;;;;;;12.63;10.05;;;14.80;91.40;;;;;;5055340;28;20028;-46
2022/01/25 11:04:16;;;;;;;13.98;9.80;;;;;;;;;;5055007;28;20076;-45
2022/01/25 11:06:43;;;;;;;12.65;10.07;;;14.80;91.40;;;;;;5055107;28;20033;-46
2022/01/25 11:09:12;;;;;;;11.75;9.88;;;14.90;91.40;;;;;;5054837;28;20495;-44
2022/01/25 11:11:51;;;;;;;11.05;9.65;;;14.80;86.90;;;;;;5055159;28;20017;-46
2022/01/25 11:17:02;;;;;;;12.88;9.57;;;;;;;;;;5055139;28;20116;-44
2022/01/25 11:19:28;;;;;;;11.38;9.68;;;;;;;;;;5054463;28;20399;-45
2022/01/25 11:21:55;;;;;;;12.18;9.82;;;;;;;;;;5054943;28;20025;-48
2022/01/25 11:24:24;;;;;;;12.55;9.80;;;;;;;;;;5055031;28;20383;-45
2022/01/25 11:26:51;;;;;;;12.18;9.65;;;14.90;90.00;;;;;;5054870;28;20029;-45
2022/01/25 11:29:18;;;;;;;10.43;8.52;;;;;;;;;;5054446;28;20040;-45
2022/01/25 11:31:55;;;;;;;14.27;10.68;;;14.80;91.70;;;;;;5054564;28;20021;-45
2022/01/25 11:34:26;;;;;;;12.57;9.45;;;14.90;91.60;;;;;;5054461;28;20033;-45
2022/01/25 11:36:57;;;;;;;13.05;10.25;;;14.80;91.60;;;;;;5054638;28;20021;-45
2022/01/25 11:39:24;;;;;;;11.82;9.38;;;14.90;91.40;;;;;;5054672;28;20055;-45
2022/01/25 11:41:51;;;;;;;9.52;8.25;;;;;;;;;;5054399;28;20030;-46
2022/01/25 11:44:21;;;;;;;14.30;10.57;;;14.90;91.50;;;;;;5054295;28;20430;-46
2022/01/25 11:46:50;;;;;;;10.82;9.68;;;14.90;91.60;;;;;;5054585;28;20017;-46
2022/01/25 11:49:17;;;;;;;14.20;10.18;;;;;;;;;;5054048;28;20041;-46
2022/01/25 11:51:45;;;;;;;11.65;9.77;;;14.90;91.50;;;;;;5054423;28;20384;-46
2022/01/25 11:54:11;;;;;;;11.93;9.77;;;;;;;;;;5054099;28;20523;-48
2022/01/25 11:56:39;;;;;;;11.48;9.85;;;14.90;91.50;;;;;;5053974;28;20033;-47
2022/01/25 11:59:07;;;;;;;11.52;9.90;;;;;;;;;;5053990;28;20067;-46
2022/01/25 12:01:35;;;;;;;10.15;8.93;;;14.90;91.50;;;;;;5053895;28;20029;-47
2022/01/25 12:04:06;;;;;;;12.25;10.25;;;14.80;86.70;;;;;;5053726;28;20045;-46
2022/01/25 12:06:44;;;;;;;12.60;9.50;;;14.80;91.30;;;;;;5054099;28;20361;-47
2022/01/25 12:09:17;;;;;;;15.50;11.40;;;14.70;91.60;;;;;;5053739;28;20033;-47
2022/01/25 12:11:49;;;;;;;13.45;10.98;;;14.70;91.30;;;;;;5054037;28;20028;-47
2022/01/25 12:14:38;;;;;;;16.13;12.65;;;14.60;86.20;;;;;;5053696;28;20029;-47
2022/01/25 12:17:04;;;;;;;16.55;12.43;;;;;;;;;;5053706;28;20028;-45
2022/01/25 12:19:50;;;;;;;18.10;13.00;;;14.60;86.80;;;;;;5053570;28;20029;-45
2022/01/25 12:22:26;;;;;;;18.40;14.45;;;14.50;86.10;;;;;;5053540;28;20036;-45
2022/01/25 12:25:36;;;;;;;20.88;15.43;;;14.40;87.30;;;;;;5053782;28;20051;-45
2022/01/25 12:28:08;;;;;;;19.98;14.95;;;;;;;;;;5046776;28;20107;-45
2022/01/25 12:30:39;;;;;;;19.42;14.25;;;14.30;87.80;;;;;;5053384;28;20033;-45
2022/01/25 12:33:40;;;;;;;18.85;14.90;;;14.20;88.10;;;;;;5052766;28;20100;-45
2022/01/25 12:36:08;;;;;;;18.85;14.02;;;;;;;;;;5044150;28;20037;-45
2022/01/25 12:38:51;;;;;;;18.50;14.55;;;14.30;88.00;;;;;;5053264;28;20035;-45
2022/01/25 12:41:20;;;;;;;20.27;14.90;;;14.30;91.90;;;;;;5053128;28;20033;-45
2022/01/25 12:44:02;;;;;;;18.60;14.88;;;14.30;88.40;;;;;;5053184;28;20023;-45
2022/01/25 12:46:34;;;;;;;22.80;16.42;;;14.20;87.90;;;;;;5053171;28;20032;-45
2022/01/25 12:49:03;;;;;;;18.77;14.88;;;14.30;91.20;;;;;;5053015;28;20102;-45
2022/01/25 12:51:35;;;;;;;19.08;15.13;;;14.40;92.00;;;;;;5053001;28;20024;-45
2022/01/25 12:54:04;;;;;;;21.58;16.45;;;14.50;91.90;;;;;;5053113;28;20029;-47
2022/01/25 12:56:34;;;;;;;19.02;14.85;;;14.40;91.70;;;;;;5053076;28;20112;-45
2022/01/25 12:59:06;;;;;;;22.77;14.98;;;14.50;92.10;;;;;;5053063;28;20033;-45
2022/01/25 13:01:32;;;;;;;19.73;14.32;;;;;;;;;;5052721;28;20453;-46
2022/01/25 13:04:03;;;;;;;20.40;15.55;;;14.70;87.40;;;;;;5052618;28;20060;-46
2022/01/25 13:06:35;;;;;;;20.02;14.75;;;14.80;91.60;;;;;;5052704;28;20021;-45
2022/01/25 13:09:17;;;;;;;19.27;14.43;;;14.90;91.70;;;;;;5052633;28;20123;-45
2022/01/25 13:17:03;;;;;;;17.98;13.55;;;;;;;;;;5052918;28;20090;-45
2022/01/25 13:19:41;;;;;;;18.52;12.65;;;15.20;91.40;;;;;;5052773;28;20229;-45
2022/01/25 13:22:14;;;;;;;15.23;11.95;;;15.30;91.50;;;;;;5052680;28;20027;-45
2022/01/25 13:24:55;;;;;;;16.77;11.90;;;15.30;91.20;;;;;;5052812;28;20053;-45
2022/01/25 13:27:21;;;;;;;14.93;12.30;;;;;;;;;;5051100;28;20499;-44
2022/01/25 13:32:45;;;;;;;14.60;10.67;;;15.60;85.70;;;;;;5052737;28;20098;-48
2022/01/25 13:35:20;;;;;;;15.55;12.02;;;15.70;85.50;;;;;;5052352;28;20036;-46
2022/01/25 13:38:02;;;;;;;15.73;12.05;;;15.80;90.80;;;;;;5052576;28;20098;-48
2022/01/25 13:40:46;;;;;;;15.18;12.05;;;15.90;90.70;;;;;;5052218;28;20025;-46
2022/01/25 13:45:56;;;;;;;15.73;11.30;;;15.90;84.90;;;;;;5052475;28;20029;-48
2022/01/25 13:48:24;;;;;;;13.40;10.70;;;;;;;;;;5052002;28;20071;-47
2022/01/25 13:50:59;;;;;;;15.50;11.23;;;16.10;90.60;;;;;;5052409;28;20040;-46
2022/01/25 13:53:25;;;;;;;13.35;11.10;;;;;;;;;;5052131;28;20032;-47
2022/01/25 13:55:53;;;;;;;13.63;11.13;;;16.30;90.80;;;;;;5052360;28;20056;-46
2022/01/25 13:58:23;;;;;;;12.00;10.15;;;16.30;90.80;;;;;;5051946;28;20025;-45
2022/01/25 14:00:49;;;;;;;10.70;9.05;;;;;;;;;;5051977;28;20100;-45
2022/01/25 14:03:16;;;;;;;13.73;9.82;;;;;;;;;;5051771;28;20098;-45
2022/01/25 14:05:42;;;;;;;11.00;9.23;;;;;;;;;;5051940;28;20025;-46
2022/01/25 14:08:09;;;;;;;11.65;9.07;;;;;;;;;;5052197;28;20033;-47
2022/01/25 14:10:35;;;;;;;11.63;9.93;;;;;;;;;;5051857;28;20029;-48
2022/01/25 14:24:11;;;;;;;10.20;8.80;;;;;;;;;;5051918;28;20059;-46
2022/01/25 14:26:38;;;;;;;10.32;8.25;;;;;;;;;;5051845;28;20033;-46
2022/01/25 14:29:16;;;;;;;11.52;8.95;;;16.90;84.00;;;;;;5052055;28;20566;-46
2022/01/25 14:31:43;;;;;;;10.02;8.48;;;16.90;90.20;;;;;;5052242;28;20025;-45
2022/01/25 14:34:11;;;;;;;9.52;8.38;;;17.00;90.20;;;;;;5051704;28;20056;-46
2022/01/25 14:36:39;;;;;;;10.80;7.70;;;;;;;;;;5051573;28;20471;-46
2022/01/25 14:39:06;;;;;;;9.93;8.27;;;17.10;90.10;;;;;;5051651;28;20032;-46
2022/01/25 14:41:32;;;;;;;9.38;7.63;;;;;;;;;;5051676;28;20033;-46
2022/01/25 14:44:03;;;;;;;9.27;7.68;;;17.30;90.10;;;;;;5051537;28;20025;-46
2022/01/25 14:46:32;;;;;;;9.43;8.18;;;17.40;90.00;;;;;;5052054;28;20078;-47
2022/01/25 14:49:14;;;;;;;12.60;8.48;;;17.50;90.00;;;;;;5051528;28;20033;-45
2022/01/25 14:51:46;;;;;;;9.73;8.25;;;17.50;90.20;;;;;;5051847;28;20052;-46
2022/01/25 14:54:32;;;;;;;10.25;7.85;;;;;;;;;;5051616;28;20099;-46
2022/01/25 14:57:01;;;;;;;9.48;7.35;;;;;;;;;;5055170;28;20532;-45
2022/01/25 14:59:31;;;;;;;7.70;6.90;;;17.60;90.20;;;;;;5055453;28;20395;-45
2022/01/25 15:01:57;;;;;;;7.83;7.07;;;;;;;;;;5055062;28;20395;-45
2022/01/25 15:04:24;;;;;;;7.75;7.00;;;;;;;;;;5055111;28;20291;-46
2022/01/25 15:06:50;;;;;;;7.45;6.65;;;;;;;;;;5055016;28;20035;-47
2022/01/25 15:09:17;;;;;;;9.07;7.30;;;;;;;;;;5055376;28;20049;-46
2022/01/25 15:11:43;;;;;;;9.05;7.43;;;;;;;;;;5054977;28;20454;-46
2022/01/25 15:14:20;;;;;;;8.93;7.40;;;;;;;;;;5055194;28;20029;-47
2022/01/25 15:16:47;;;;;;;7.90;6.75;;;;;;;;;;5054882;28;20112;-46
2022/01/25 15:19:18;;;;;;;8.32;7.53;;;;;;;;;;5054782;28;20107;-47
2022/01/25 15:21:44;;;;;;;8.77;7.88;;;;;;;;;;5054851;28;20040;-46
2022/01/25 15:24:10;;;;;;;8.18;7.13;;;;;;;;;;5054798;28;20035;-47
2022/01/25 15:26:37;;;;;;;7.18;6.50;;;;;;;;;;5054668;28;20025;-46
2022/01/25 15:29:06;;;;;;;8.43;7.20;;;17.90;88.80;;;;;;5054512;28;20116;-47
2022/01/25 15:31:32;;;;;;;11.38;7.45;;;;;;;;;;5054649;28;20143;-46
2022/01/25 15:33:58;;;;;;;7.95;7.15;;;;;;;;;;5054508;28;20067;-46
2022/01/25 15:36:24;;;;;;;8.18;6.57;;;;;;;;;;5054476;28;20055;-47
2022/01/25 15:38:51;;;;;;;8.95;7.80;;;;;;;;;;5054459;28;20483;-45
2022/01/25 15:41:21;;;;;;;7.72;6.82;;;;;;;;;;5054433;28;20480;-44
2022/01/25 15:43:57;;;;;;;7.88;7.07;;;;;;;;;;5054548;28;20122;-45
2022/01/25 15:46:45;;;;;;;7.45;6.63;;;17.90;89.50;;;;;;5054594;28;20025;-45
2022/01/25 15:49:11;;;;;;;8.60;7.57;;;;;;;;;;5054458;28;20112;-45
2022/01/25 15:51:37;;;;;;;7.70;6.95;;;;;;;;;;5054270;28;20423;-45
2022/01/25 15:54:03;;;;;;;7.82;7.03;;;;;;;;;;5054158;28;20040;-45
2022/01/25 15:56:29;;;;;;;8.98;8.02;;;;;;;;;;5054133;28;20025;-45
2022/01/25 15:58:55;;;;;;;10.55;7.68;;;;;;;;;;5054056;28;20523;-45
2022/01/25 16:01:21;;;;;;;13.55;7.95;;;;;;;;;;5054038;28;20021;-45
2022/01/25 16:03:48;;;;;;;7.72;6.82;;;;;;;;;;5053879;28;20060;-45
2022/01/25 16:06:14;;;;;;;8.43;7.43;;;;;;;;;;5052838;28;20033;-45
2022/01/25 16:08:40;;;;;;;7.85;7.03;;;;;;;;;;5054112;28;20114;-46